createdAt,value
2022-11-05T00:01:22.988Z,99228.00
2022-11-05T00:04:10.323Z,99219.00
2022-11-05T00:07:01.449Z,99231.00
2022-11-05T00:09:40.301Z,99230.00
2022-11-05T00:12:32.509Z,99241.00
2022-11-05T00:15:19.633Z,99243.00
2022-11-05T00:17:48.801Z,99246.00
2022-11-05T00:20:17.989Z,99248.00
2022-11-05T00:23:05.223Z,99253.00
2022-11-05T00:25:34.776Z,99254.00
2022-11-05T00:28:05.445Z,99256.00
2022-11-05T00:30:34.524Z,99258.00
2022-11-05T00:33:04.507Z,99259.00
2022-11-05T00:35:33.654Z,99267.00
2022-11-05T00:38:02.848Z,99270.00
2022-11-05T00:40:32.055Z,99263.00
2022-11-05T00:43:19.304Z,99279.00
2022-11-05T00:45:48.477Z,99275.00
2022-11-05T00:48:35.815Z,99276.00
2022-11-05T00:51:05.041Z,99282.00
2022-11-05T00:53:34.337Z,99279.00
2022-11-05T00:56:03.851Z,99280.00
2022-11-05T00:58:32.989Z,99291.00
2022-11-05T01:01:04.588Z,99290.00
2022-11-05T01:03:38.372Z,99291.00
2022-11-05T01:06:17.523Z,99296.00
2022-11-05T01:08:48.552Z,99290.00
2022-11-05T01:11:36.337Z,99295.00
2022-11-05T01:14:10.748Z,99292.00
2022-11-05T01:16:41.939Z,99300.00
2022-11-05T01:19:13.450Z,99299.00
2022-11-05T01:21:42.648Z,99298.00
2022-11-05T01:24:12.758Z,99307.00
2022-11-05T01:26:41.959Z,99312.00
2022-11-05T01:29:13.463Z,99312.00
2022-11-05T01:31:43.249Z,99318.00
2022-11-05T01:34:12.410Z,99317.00
2022-11-05T01:36:41.638Z,99317.00
2022-11-05T01:39:10.986Z,99321.00
2022-11-05T01:41:40.142Z,99319.00
2022-11-05T01:45:13.799Z,99329.00
2022-11-05T01:48:17.680Z,99330.00
2022-11-05T01:51:06.070Z,99329.00
2022-11-05T01:53:42.592Z,99340.00
2022-11-05T01:56:23.545Z,99329.00
2022-11-05T01:59:04.377Z,99336.00
2022-11-05T02:01:34.806Z,99337.00
2022-11-05T02:04:10.087Z,99348.00
2022-11-05T02:06:47.537Z,99341.00
2022-11-05T02:09:49.427Z,99343.00
2022-11-05T02:12:20.951Z,99347.00
2022-11-05T02:14:50.252Z,99341.00
2022-11-05T02:17:34.190Z,99344.00
2022-11-05T02:20:18.285Z,99347.00
2022-11-05T02:23:19.949Z,99350.00
2022-11-05T02:26:25.700Z,99350.00
2022-11-05T02:29:22.348Z,99355.00
2022-11-05T02:32:32.659Z,99355.00
2022-11-05T02:35:19.362Z,99355.00
2022-11-05T02:38:00.910Z,99351.00
2022-11-05T02:40:51.543Z,99354.00
2022-11-05T02:43:46.747Z,99360.00
2022-11-05T02:46:50.969Z,99363.00
2022-11-05T02:49:54.895Z,99359.00
2022-11-05T02:53:16.822Z,99358.00
2022-11-05T02:56:11.979Z,99354.00
2022-11-05T02:58:41.044Z,99361.00
2022-11-05T03:01:13.612Z,99354.00
2022-11-05T03:03:56.116Z,99355.00
2022-11-05T03:07:02.294Z,99357.00
2022-11-05T03:09:52.324Z,99346.00
2022-11-05T03:13:01.154Z,99344.00
2022-11-05T03:15:54.007Z,99342.00
2022-11-05T03:18:48.791Z,99334.00
2022-11-05T03:21:36.760Z,99329.00
2022-11-05T03:24:24.691Z,99333.00
2022-11-05T03:27:04.325Z,99328.00
2022-11-05T03:29:48.870Z,99335.00
2022-11-05T03:32:21.923Z,99326.00
2022-11-05T03:35:00.232Z,99325.00
2022-11-05T03:37:35.966Z,99318.00
2022-11-05T03:40:09.986Z,99318.00
2022-11-05T03:42:44.174Z,99319.00
2022-11-05T03:45:24.941Z,99304.00
2022-11-05T03:48:00.173Z,99305.00
2022-11-05T03:50:41.450Z,99307.00
2022-11-05T03:53:28.407Z,99304.00
2022-11-05T03:56:24.367Z,99292.00
2022-11-05T03:58:58.972Z,99286.00
2022-11-05T04:01:31.391Z,99280.00
2022-11-05T04:04:00.887Z,99270.00
2022-11-05T04:06:48.133Z,99266.00
2022-11-05T04:09:35.462Z,99261.00
2022-11-05T04:12:23.189Z,99253.00
2022-11-05T04:14:53.642Z,99260.00
2022-11-05T04:17:22.870Z,99241.00
2022-11-05T04:20:10.215Z,99240.00
2022-11-05T04:22:58.135Z,99239.00
2022-11-05T04:25:27.403Z,99243.00
2022-11-05T04:28:01.729Z,99233.00
2022-11-05T04:30:30.947Z,99229.00
2022-11-05T04:33:11.790Z,99224.00
2022-11-05T04:35:49.082Z,99224.00
2022-11-05T04:38:21.150Z,99215.00
2022-11-05T04:40:50.656Z,99207.00
2022-11-05T04:43:21.400Z,99201.00
2022-11-05T04:45:50.845Z,99204.00
2022-11-05T04:48:19.987Z,99199.00
2022-11-05T04:50:49.293Z,99203.00
2022-11-05T04:53:18.399Z,99199.00
2022-11-05T04:55:47.552Z,99188.00
2022-11-05T04:58:16.752Z,99188.00
2022-11-05T05:00:47.123Z,99186.00
2022-11-05T05:03:16.435Z,99181.00
2022-11-05T05:05:45.535Z,99182.00
2022-11-05T05:08:14.741Z,99173.00
2022-11-05T05:10:43.916Z,99180.00
2022-11-05T05:13:14.167Z,99178.00
2022-11-05T05:15:43.386Z,99163.00
2022-11-05T05:18:12.530Z,99165.00
2022-11-05T05:20:59.991Z,99157.00
2022-11-05T05:23:29.415Z,99156.00
2022-11-05T05:26:04.743Z,99154.00
2022-11-05T05:28:34.547Z,99155.00
2022-11-05T05:31:04.317Z,99139.00
2022-11-05T05:33:33.483Z,99137.00
2022-11-05T05:36:07.095Z,99142.00
2022-11-05T05:38:40.977Z,99136.00
2022-11-05T05:41:10.537Z,99130.00
2022-11-05T05:43:39.691Z,99132.00
2022-11-05T05:46:12.940Z,99119.00
2022-11-05T05:48:43.067Z,99115.00
2022-11-05T05:51:13.833Z,99122.00
2022-11-05T05:53:42.945Z,99112.00
2022-11-05T05:56:15.783Z,99110.00
2022-11-05T05:58:44.956Z,99107.00
2022-11-05T06:01:19.414Z,99098.00
2022-11-05T06:03:50.816Z,99097.00
2022-11-05T06:06:23.695Z,99094.00
2022-11-05T06:08:52.835Z,99089.00
2022-11-05T06:11:22.040Z,99086.00
2022-11-05T06:13:51.530Z,99081.00
2022-11-05T06:16:20.800Z,99086.00
2022-11-05T06:18:50.180Z,99071.00
2022-11-05T06:21:20.408Z,99063.00
2022-11-05T06:23:50.734Z,99063.00
2022-11-05T06:26:21.361Z,99057.00
2022-11-05T06:28:50.578Z,99053.00
2022-11-05T06:31:19.743Z,99050.00
2022-11-05T06:33:49.521Z,99056.00
2022-11-05T06:36:21.011Z,99041.00
2022-11-05T06:38:50.204Z,99047.00
2022-11-05T06:41:19.284Z,99038.00
2022-11-05T06:43:48.414Z,99035.00
2022-11-05T06:46:17.906Z,99027.00
2022-11-05T06:48:47.070Z,99032.00
2022-11-05T06:51:16.424Z,99023.00
2022-11-05T06:53:45.649Z,99027.00
2022-11-05T06:56:14.928Z,99032.00
2022-11-05T06:58:44.499Z,99018.00
2022-11-05T07:01:14.659Z,99020.00
2022-11-05T07:03:45.674Z,99015.00
2022-11-05T07:06:14.821Z,99010.00
2022-11-05T07:08:44.013Z,99007.00
2022-11-05T07:11:13.206Z,99007.00
2022-11-05T07:13:42.453Z,99007.00
2022-11-05T07:16:11.841Z,99005.00
2022-11-05T07:18:41.005Z,99004.00
2022-11-05T07:21:10.130Z,98998.00
2022-11-05T07:23:39.302Z,98994.00
2022-11-05T07:26:08.471Z,98994.00
2022-11-05T07:28:37.681Z,98994.00
2022-11-05T07:31:07.029Z,98997.00
2022-11-05T07:33:36.844Z,98996.00
2022-11-05T07:36:06.517Z,98989.00
2022-11-05T07:38:35.799Z,98996.00
2022-11-05T07:41:05.494Z,98984.00
2022-11-05T07:43:34.602Z,98986.00
2022-11-05T07:46:03.840Z,98986.00
2022-11-05T07:48:32.990Z,98987.00
2022-11-05T07:51:02.156Z,98982.00
2022-11-05T07:53:31.343Z,98976.00
2022-11-05T07:56:02.748Z,98970.00
2022-11-05T07:58:32.070Z,98966.00
2022-11-05T08:01:01.739Z,98959.00
2022-11-05T08:03:31.625Z,98968.00
2022-11-05T08:06:01.325Z,98967.00
2022-11-05T08:08:30.544Z,98964.00
2022-11-05T08:11:12.074Z,98951.00
2022-11-05T08:13:41.421Z,98950.00
2022-11-05T08:16:11.747Z,98945.00
2022-11-05T08:18:41.054Z,98951.00
2022-11-05T08:21:10.530Z,98960.00
2022-11-05T08:23:40.313Z,98953.00
2022-11-05T08:26:09.508Z,98951.00
2022-11-05T08:28:38.718Z,98952.00
2022-11-05T08:31:08.036Z,98954.00
2022-11-05T08:33:37.259Z,98950.00
2022-11-05T08:36:07.035Z,98955.00
2022-11-05T08:38:36.267Z,98954.00
2022-11-05T08:41:05.831Z,98957.00
2022-11-05T08:43:34.983Z,98960.00
2022-11-05T08:46:04.371Z,98967.00
2022-11-05T08:48:33.523Z,98963.00
2022-11-05T08:51:03.071Z,98960.00
2022-11-05T08:53:32.278Z,98955.00
2022-11-05T08:56:01.671Z,98961.00
2022-11-05T08:58:30.870Z,98959.00
2022-11-05T09:01:04.736Z,98956.00
2022-11-05T09:03:34.427Z,98956.00
2022-11-05T09:06:03.605Z,98964.00
2022-11-05T09:08:32.791Z,98962.00
2022-11-05T09:11:02.276Z,98952.00
2022-11-05T09:13:31.465Z,98958.00
2022-11-05T09:16:01.253Z,98962.00
2022-11-05T09:18:30.748Z,98963.00
2022-11-05T09:20:59.924Z,98973.00
2022-11-05T09:23:29.057Z,98964.00
2022-11-05T09:25:58.272Z,98966.00
2022-11-05T09:28:29.189Z,98968.00
2022-11-05T09:30:58.507Z,98965.00
2022-11-05T09:33:29.107Z,98968.00
2022-11-05T09:38:38.804Z,98968.00
2022-11-05T09:41:38.518Z,98975.00
2022-11-05T09:44:49.257Z,98973.00
2022-11-05T09:47:29.085Z,98973.00
2022-11-05T09:50:02.174Z,98977.00
2022-11-05T09:52:35.367Z,98975.00
2022-11-05T09:55:29.107Z,98983.00
2022-11-05T09:58:03.596Z,98988.00
2022-11-05T10:00:35.269Z,98984.00
2022-11-05T10:03:16.631Z,98992.00
2022-11-05T10:05:49.211Z,98985.00
2022-11-05T10:08:44.301Z,98986.00
2022-11-05T10:11:35.424Z,98998.00
2022-11-05T10:14:43.157Z,98996.00
2022-11-05T10:17:27.902Z,99003.00
2022-11-05T10:20:15.070Z,99000.00
2022-11-05T10:22:49.291Z,99016.00
2022-11-05T10:25:22.496Z,99012.00
2022-11-05T10:27:57.009Z,99015.00
2022-11-05T10:30:26.241Z,99021.00
2022-11-05T10:33:01.234Z,99022.00
2022-11-05T10:35:35.343Z,99016.00
2022-11-05T10:38:04.792Z,99024.00
2022-11-05T10:41:04.723Z,99028.00
2022-11-05T10:44:18.814Z,99040.00
2022-11-05T10:47:20.063Z,99047.00
2022-11-05T10:50:02.179Z,99047.00
2022-11-05T10:52:50.316Z,99040.00
2022-11-05T10:55:32.925Z,99042.00
2022-11-05T10:58:25.841Z,99055.00
2022-11-05T11:00:54.932Z,99058.00
2022-11-05T11:03:54.798Z,99054.00
2022-11-05T11:06:40.510Z,99052.00
2022-11-05T11:09:30.442Z,99058.00
2022-11-05T11:12:40.659Z,99066.00
2022-11-05T11:15:24.003Z,99063.00
2022-11-05T11:17:53.502Z,99066.00
2022-11-05T11:20:32.743Z,99069.00
2022-11-05T11:23:15.842Z,99071.00
2022-11-05T11:26:01.568Z,99075.00
2022-11-05T11:28:39.673Z,99076.00
2022-11-05T11:31:19.138Z,99082.00
2022-11-05T11:33:54.329Z,99085.00
2022-11-05T11:36:33.494Z,99085.00
2022-11-05T11:39:06.740Z,99084.00
2022-11-05T11:41:44.014Z,99093.00
2022-11-05T11:44:30.523Z,99094.00
2022-11-05T11:47:10.511Z,99096.00
2022-11-05T11:49:53.260Z,99103.00
2022-11-05T11:52:36.382Z,99107.00
2022-11-05T11:55:14.509Z,99109.00
2022-11-05T11:57:54.474Z,99118.00
2022-11-05T12:00:27.980Z,99125.00
2022-11-05T12:03:14.893Z,99130.00
2022-11-05T12:06:16.083Z,99135.00
2022-11-05T12:09:29.352Z,99143.00
2022-11-05T12:12:21.215Z,99151.00
2022-11-05T12:15:00.226Z,99151.00
2022-11-05T12:17:50.176Z,99155.00
2022-11-05T12:20:57.991Z,99159.00
2022-11-05T12:23:51.254Z,99161.00
2022-11-05T12:26:46.927Z,99167.00
2022-11-05T12:29:40.380Z,99166.00
2022-11-05T12:32:50.392Z,99164.00
2022-11-05T12:35:49.987Z,99174.00
2022-11-05T12:38:46.973Z,99177.00
2022-11-05T12:41:35.278Z,99179.00
2022-11-05T12:44:33.264Z,99185.00
2022-11-05T12:47:44.214Z,99193.00
2022-11-05T12:50:56.660Z,99204.00
2022-11-05T12:53:49.944Z,99206.00
2022-11-05T12:56:59.755Z,99212.00
2022-11-05T13:00:01.973Z,99209.00
2022-11-05T13:02:47.811Z,99213.00
2022-11-05T13:05:26.015Z,99220.00
2022-11-05T13:08:16.996Z,99220.00
2022-11-05T13:10:56.925Z,99222.00
2022-11-05T13:13:43.610Z,99227.00
2022-11-05T13:16:29.622Z,99234.00
2022-11-05T13:19:18.958Z,99236.00
2022-11-05T13:21:59.565Z,99234.00
2022-11-05T13:24:46.617Z,99236.00
2022-11-05T13:27:36.580Z,99247.00
2022-11-05T13:30:08.841Z,99243.00
2022-11-05T13:32:43.268Z,99239.00
2022-11-05T13:35:46.170Z,99243.00
2022-11-05T13:38:45.872Z,99241.00
2022-11-05T13:41:37.461Z,99243.00
2022-11-05T13:44:31.591Z,99244.00
2022-11-05T13:47:22.691Z,99235.00
2022-11-05T13:50:28.131Z,99240.00
2022-11-05T13:53:23.154Z,99239.00
2022-11-05T13:56:03.958Z,99240.00
2022-11-05T13:59:06.769Z,99245.00
2022-11-05T14:02:02.660Z,99244.00
2022-11-05T14:04:48.649Z,99250.00
2022-11-05T14:07:31.329Z,99245.00
2022-11-05T14:10:32.500Z,99248.00
2022-11-05T14:13:30.212Z,99251.00
2022-11-05T14:16:17.403Z,99255.00
2022-11-05T14:19:20.307Z,99259.00
2022-11-05T14:21:50.688Z,99253.00
2022-11-05T14:24:28.440Z,99259.00
2022-11-05T14:27:03.675Z,99255.00
2022-11-05T14:29:48.967Z,99257.00
2022-11-05T14:32:26.945Z,99253.00
2022-11-05T14:35:17.379Z,99256.00
2022-11-05T14:37:59.009Z,99257.00
2022-11-05T14:40:43.249Z,99256.00
2022-11-05T14:43:25.791Z,99259.00
2022-11-05T14:46:08.957Z,99257.00
2022-11-05T14:49:08.141Z,99262.00
2022-11-05T14:51:46.758Z,99269.00
2022-11-05T14:54:22.034Z,99271.00
2022-11-05T14:56:57.958Z,99272.00
2022-11-05T14:59:29.221Z,99274.00
2022-11-05T15:02:02.664Z,99280.00
2022-11-05T15:04:41.419Z,99281.00
2022-11-05T15:07:10.498Z,99279.00
2022-11-05T15:09:56.014Z,99277.00
2022-11-05T15:12:47.871Z,99284.00
2022-11-05T15:15:32.897Z,99282.00
2022-11-05T15:18:31.494Z,99283.00
2022-11-05T15:21:05.843Z,99275.00
2022-11-05T15:23:46.383Z,99283.00
2022-11-05T15:26:46.048Z,99285.00
2022-11-05T15:29:29.391Z,99277.00
2022-11-05T15:32:00.517Z,99278.00
2022-11-05T15:34:38.686Z,99282.00
2022-11-05T15:37:14.533Z,99276.00
2022-11-05T15:39:48.045Z,99271.00
2022-11-05T15:42:23.248Z,99272.00
2022-11-05T15:44:58.070Z,99273.00
2022-11-05T15:47:30.003Z,99278.00
2022-11-05T15:50:03.324Z,99279.00
2022-11-05T15:52:52.617Z,99278.00
2022-11-05T15:55:28.325Z,99269.00
2022-11-05T15:58:08.189Z,99268.00
2022-11-05T16:00:38.510Z,99268.00
2022-11-05T16:03:21.090Z,99258.00
2022-11-05T16:05:51.232Z,99259.00
2022-11-05T16:08:35.238Z,99261.00
2022-11-05T16:11:05.004Z,99259.00
2022-11-05T16:13:41.086Z,99260.00
2022-11-05T16:16:16.213Z,99264.00
2022-11-05T16:18:47.094Z,99256.00
2022-11-05T16:21:25.151Z,99262.00
2022-11-05T16:23:57.826Z,99255.00
2022-11-05T16:29:41.398Z,99257.00
2022-11-05T16:32:39.950Z,99251.00
2022-11-05T16:35:22.866Z,99249.00
2022-11-05T16:37:53.807Z,99243.00
2022-11-05T16:40:27.927Z,99236.00
2022-11-05T16:43:29.712Z,99234.00
2022-11-05T16:46:03.116Z,99234.00
2022-11-05T16:48:32.168Z,99235.00
2022-11-05T16:51:01.835Z,99238.00
2022-11-05T16:53:30.964Z,99229.00
2022-11-05T16:56:00.062Z,99226.00
2022-11-05T16:58:29.319Z,99228.00
2022-11-05T17:01:09.063Z,99221.00
2022-11-05T17:03:38.279Z,99224.00
2022-11-05T17:06:07.869Z,99227.00
2022-11-05T17:08:37.564Z,99231.00
2022-11-05T17:11:07.857Z,99232.00
2022-11-05T17:13:37.042Z,99233.00
2022-11-05T17:16:06.420Z,99236.00
2022-11-05T17:18:35.492Z,99222.00
2022-11-05T17:21:04.878Z,99225.00
2022-11-05T17:23:35.258Z,99224.00
2022-11-05T17:26:11.896Z,99226.00
2022-11-05T17:28:41.803Z,99220.00
2022-11-05T17:31:14.503Z,99220.00
2022-11-05T17:33:44.089Z,99223.00
2022-11-05T17:36:17.231Z,99219.00
2022-11-05T17:38:47.099Z,99213.00
2022-11-05T17:41:23.557Z,99214.00
2022-11-05T17:43:58.827Z,99212.00
2022-11-05T17:46:29.749Z,99211.00
2022-11-05T17:48:58.937Z,99212.00
2022-11-05T17:51:28.183Z,99210.00
2022-11-05T17:53:57.353Z,99204.00
2022-11-05T17:56:34.092Z,99197.00
2022-11-05T17:59:05.168Z,99198.00
2022-11-05T18:01:44.066Z,99201.00
2022-11-05T18:04:13.665Z,99193.00
2022-11-05T18:06:43.295Z,99191.00
2022-11-05T18:09:15.059Z,99186.00
2022-11-05T18:11:44.764Z,99191.00
2022-11-05T18:14:13.960Z,99190.00
2022-11-05T18:16:43.446Z,99182.00
2022-11-05T18:19:12.745Z,99184.00
2022-11-05T18:21:41.979Z,99186.00
2022-11-05T18:24:11.495Z,99187.00
2022-11-05T18:26:40.648Z,99185.00
2022-11-05T18:29:09.894Z,99182.00
2022-11-05T18:31:39.360Z,99180.00
2022-11-05T18:34:08.766Z,99179.00
2022-11-05T18:36:37.946Z,99182.00
2022-11-05T18:39:07.884Z,99178.00
2022-11-05T18:41:37.146Z,99182.00
2022-11-05T18:44:07.074Z,99169.00
2022-11-05T18:46:57.027Z,99169.00
2022-11-05T18:49:26.097Z,99172.00
2022-11-05T18:51:55.693Z,99168.00
2022-11-05T18:54:24.945Z,99164.00
2022-11-05T18:56:54.101Z,99163.00
2022-11-05T18:59:37.107Z,99158.00
2022-11-05T19:02:09.066Z,99160.00
2022-11-05T19:04:39.389Z,99158.00
2022-11-05T19:07:10.575Z,99154.00
2022-11-05T19:09:41.093Z,99152.00
2022-11-05T19:12:10.560Z,99142.00
2022-11-05T19:14:39.682Z,99142.00
2022-11-05T19:17:08.853Z,99146.00
2022-11-05T19:19:38.758Z,99147.00
2022-11-05T19:22:07.917Z,99144.00
2022-11-05T19:24:37.106Z,99145.00
2022-11-05T19:27:06.272Z,99142.00
2022-11-05T19:29:35.579Z,99141.00
2022-11-05T19:32:04.876Z,99141.00
2022-11-05T19:34:34.012Z,99133.00
2022-11-05T19:37:03.614Z,99136.00
2022-11-05T19:39:33.505Z,99133.00
2022-11-05T19:42:04.725Z,99135.00
2022-11-05T19:44:34.544Z,99130.00
2022-11-05T19:47:03.824Z,99127.00
2022-11-05T19:49:33.035Z,99120.00
2022-11-05T19:52:02.154Z,99114.00
2022-11-05T19:54:31.430Z,99122.00
2022-11-05T19:57:00.726Z,99118.00
2022-11-05T19:59:29.934Z,99113.00
2022-11-05T20:01:59.227Z,99119.00
2022-11-05T20:04:28.491Z,99109.00
2022-11-05T20:06:57.620Z,99104.00
2022-11-05T20:09:26.865Z,99105.00
2022-11-05T20:11:57.322Z,99103.00
2022-11-05T20:14:27.723Z,99103.00
2022-11-05T20:16:56.987Z,99101.00
2022-11-05T20:19:26.226Z,99111.00
2022-11-05T20:21:55.395Z,99101.00
2022-11-05T20:24:25.616Z,99102.00
2022-11-05T20:26:57.394Z,99107.00
2022-11-05T20:29:33.927Z,99100.00
2022-11-05T20:32:06.080Z,99099.00
2022-11-05T20:34:36.354Z,99102.00
2022-11-05T20:37:05.771Z,99105.00
2022-11-05T20:39:35.655Z,99108.00
2022-11-05T20:42:04.998Z,99108.00
2022-11-05T20:44:34.190Z,99111.00
2022-11-05T20:47:03.440Z,99113.00
2022-11-05T20:49:32.626Z,99106.00
2022-11-05T20:52:01.782Z,99104.00
2022-11-05T20:54:30.903Z,99106.00
2022-11-05T20:57:00.113Z,99103.00
2022-11-05T20:59:31.750Z,99110.00
2022-11-05T21:02:00.966Z,99108.00
2022-11-05T21:04:30.302Z,99109.00
2022-11-05T21:06:59.495Z,99108.00
2022-11-05T21:09:28.793Z,99109.00
2022-11-05T21:12:13.268Z,99109.00
2022-11-05T21:14:44.516Z,99112.00
2022-11-05T21:17:15.381Z,99116.00
2022-11-05T21:19:44.611Z,99115.00
2022-11-05T21:22:17.657Z,99118.00
2022-11-05T21:24:46.775Z,99122.00
2022-11-05T21:27:15.961Z,99124.00
2022-11-05T21:29:45.191Z,99126.00
2022-11-05T21:32:14.404Z,99125.00
2022-11-05T21:34:43.634Z,99126.00
2022-11-05T21:37:12.782Z,99129.00
2022-11-05T21:39:42.645Z,99133.00
2022-11-05T21:42:11.842Z,99130.00
2022-11-05T21:44:41.025Z,99128.00
2022-11-05T21:47:10.557Z,99129.00
2022-11-05T21:49:39.930Z,99123.00
2022-11-05T21:52:29.475Z,99120.00
2022-11-05T21:55:17.636Z,99124.00
2022-11-05T21:58:05.144Z,99130.00
2022-11-05T22:00:34.383Z,99134.00
2022-11-05T22:03:03.442Z,99136.00
2022-11-05T22:05:32.806Z,99141.00
2022-11-05T22:08:02.080Z,99146.00
2022-11-05T22:10:31.148Z,99140.00
2022-11-05T22:13:00.224Z,99141.00
2022-11-05T22:15:30.075Z,99143.00
2022-11-05T22:17:59.212Z,99143.00
2022-11-05T22:20:28.351Z,99147.00
2022-11-05T22:22:57.472Z,99143.00
2022-11-05T22:25:26.598Z,99144.00
2022-11-05T22:27:55.764Z,99148.00
2022-11-05T22:30:24.825Z,99145.00
2022-11-05T22:32:53.925Z,99151.00
2022-11-05T22:35:23.045Z,99149.00
2022-11-05T22:37:52.486Z,99156.00
2022-11-05T22:40:23.958Z,99156.00
2022-11-05T22:42:53.512Z,99165.00
2022-11-05T22:45:22.634Z,99165.00
2022-11-05T22:47:51.765Z,99169.00
2022-11-05T22:50:20.977Z,99169.00
2022-11-05T22:52:50.144Z,99168.00
2022-11-05T22:55:19.454Z,99167.00
2022-11-05T22:57:48.677Z,99179.00
2022-11-05T23:00:19.765Z,99182.00
2022-11-05T23:02:49.031Z,99188.00
2022-11-05T23:05:18.437Z,99197.00
2022-11-05T23:08:05.745Z,99191.00
2022-11-05T23:10:53.285Z,99197.00
2022-11-05T23:13:22.454Z,99206.00
2022-11-05T23:16:09.781Z,99207.00
2022-11-05T23:18:57.331Z,99215.00
2022-11-05T23:21:44.573Z,99217.00
2022-11-05T23:24:15.141Z,99228.00
2022-11-05T23:26:53.403Z,99224.00
2022-11-05T23:29:25.912Z,99236.00
2022-11-05T23:32:14.099Z,99238.00
2022-11-05T23:34:43.339Z,99241.00
2022-11-05T23:37:30.956Z,99253.00
2022-11-05T23:40:00.598Z,99251.00
2022-11-05T23:42:47.674Z,99256.00
2022-11-05T23:45:35.116Z,99253.00
2022-11-05T23:48:36.622Z,99256.00
2022-11-05T23:51:10.536Z,99264.00
2022-11-05T23:53:42.543Z,99262.00
2022-11-05T23:56:15.793Z,99262.00
2022-11-05T23:58:45.056Z,99262.00
